Time;durP1;ratioP1;P1;durP2;ratioP2;P2;SDS_P1;SDS_P2;PMS_P1;PMS_P2;Temp;Humidity;BMP_temperature;BMP_pressure;BME280_temperature;BME280_humidity;BME280_pressure;Samples;Min_cycle;Max_cycle;Signal;HPM_P1;HPM_P2
2022/01/24 00:01:33;;;;;;;1.55;1.45;;;0.20;99.90;;;;;;5055141;28;20443;-77
2022/01/24 00:04:02;;;;;;;2.72;2.60;;;0.10;99.90;;;;;;5055021;28;20029;-77
2022/01/24 00:06:28;;;;;;;0.80;0.80;;;0.00;99.90;;;;;;5037141;28;20477;-77
2022/01/24 00:08:54;;;;;;;3.67;1.42;;;-0.20;99.90;;;;;;5054884;28;20487;-77
2022/01/24 00:11:25;;;;;;;1.92;1.10;;;-0.30;99.90;;;;;;5037020;28;20021;-77
2022/01/24 00:16:58;;;;;;;1.20;1.20;;;-0.40;99.90;;;;;;5037103;28;20056;-77
2022/01/24 00:27:15;;;;;;;0.30;0.30;;;-0.80;99.90;;;;;;5054632;28;20057;-77
2022/01/24 00:29:41;;;;;;;0.38;0.38;;;-0.70;99.90;;;;;;5054076;28;20485;-78
2022/01/24 00:32:07;;;;;;;0.40;0.40;;;-0.40;99.90;;;;;;5054456;28;20017;-77
2022/01/24 00:34:33;;;;;;;0.40;0.40;;;-0.20;99.90;;;;;;5054504;28;20565;-77
2022/01/24 00:37:00;;;;;;;10.60;4.57;;;-0.30;99.90;;;;;;5036649;28;20029;-77
2022/01/24 00:39:26;;;;;;;0.30;0.30;;;-0.20;99.90;;;;;;5036659;28;20032;-77
2022/01/24 00:47:11;;;;;;;1.73;1.65;;;0.00;99.90;;;;;;5054245;28;20082;-77
2022/01/24 00:54:53;;;;;;;4.50;4.05;;;0.20;99.90;;;;;;5054360;28;20048;-77
2022/01/24 00:57:20;;;;;;;0.50;0.50;;;0.20;99.90;;;;;;5036024;28;20025;-77
2022/01/24 00:59:47;;;;;;;0.52;0.52;;;0.20;99.90;;;;;;5054555;28;20025;-77
2022/01/24 01:02:14;;;;;;;1.00;0.70;;;0.10;99.90;;;;;;5035968;28;20021;-77
2022/01/24 01:18:07;;;;;;;1.05;1.00;;;-0.40;99.90;;;;;;5053791;28;20492;-77
2022/01/24 01:18:23;;;;;;;1.33;1.25;;;-1.00;99.90;;;;;;5053427;28;20028;-77
2022/01/24 01:21:08;;;;;;;0.50;0.50;;;-1.30;99.90;;;;;;5053463;28;20494;-77
2022/01/24 01:23:38;;;;;;;0.35;0.35;;;-1.40;99.90;;;;;;5019124;28;20059;-77
2022/01/24 01:26:09;;;;;;;0.43;0.43;;;-1.60;99.90;;;;;;5053231;28;20028;-77
2022/01/24 01:28:37;;;;;;;0.40;0.40;;;-1.60;99.90;;;;;;5035581;28;20032;-77
2022/01/24 01:31:08;;;;;;;0.40;0.40;;;-1.60;99.90;;;;;;5035290;28;20021;-77
2022/01/24 01:33:48;;;;;;;1.05;1.05;;;-1.70;99.90;;;;;;5053832;28;20366;-77
2022/01/24 01:36:26;;;;;;;0.60;0.60;;;-1.60;99.90;;;;;;5053317;28;20272;-77
2022/01/24 01:55:15;;;;;;;;;;;-1.80;99.90;;;;;;5035389;28;20029;-77
2022/01/24 01:57:42;;;;;;;0.50;0.50;;;-1.70;99.90;;;;;;5034814;28;20342;-77
2022/01/24 02:00:09;;;;;;;0.40;0.40;;;-1.50;99.90;;;;;;5052765;28;20025;-77
2022/01/24 02:02:35;;;;;;;0.50;0.50;;;-1.40;99.90;;;;;;5052573;28;20479;-77
2022/01/24 02:05:01;;;;;;;3.20;2.42;;;-1.20;99.90;;;;;;5018501;28;20119;-77
2022/01/24 02:07:27;;;;;;;0.40;0.40;;;-1.10;99.90;;;;;;5034752;28;20025;-77
2022/01/24 02:09:52;;;;;;;0.38;0.38;;;-1.00;99.90;;;;;;5052637;28;20119;-77
2022/01/24 02:12:23;;;;;;;1.13;1.02;;;-0.90;99.90;;;;;;5052573;28;20017;-77
2022/01/24 02:14:55;;;;;;;0.30;0.30;;;-0.70;99.90;;;;;;5034848;28;20027;-77
2022/01/24 02:17:32;;;;;;;0.40;0.40;;;-0.60;99.90;;;;;;5052329;28;20385;-78
2022/01/24 02:20:26;;;;;;;0.75;0.75;;;-0.50;99.90;;;;;;5018356;28;20067;-77
2022/01/24 02:23:17;;;;;;;1.60;1.50;;;-0.60;99.90;;;;;;5052485;28;20025;-77
2022/01/24 02:25:38;;;;;;;0.50;0.50;;;-0.80;99.90;;;;;;5034324;28;20063;-77
2022/01/24 02:28:05;;;;;;;12.45;2.63;;;-1.10;99.90;;;;;;5034539;28;20024;-77
2022/01/24 02:30:52;;;;;;;0.40;0.40;;;-1.30;99.90;;;;;;5034543;28;20488;-77
2022/01/24 02:33:19;;;;;;;0.60;0.60;;;-1.60;99.90;;;;;;5052265;28;20051;-77
2022/01/24 02:35:45;;;;;;;3.78;3.47;;;-1.60;99.90;;;;;;5052081;28;20325;-78
2022/01/24 02:46:03;;;;;;;1.55;1.50;;;-1.50;99.90;;;;;;5052160;28;20021;-77
2022/01/24 02:49:00;;;;;;;0.50;0.50;;;-1.00;99.90;;;;;;5052279;28;20021;-77
2022/01/24 02:51:45;;;;;;;0.80;0.80;;;-1.00;99.90;;;;;;5052156;28;20500;-77
2022/01/24 02:54:26;;;;;;;0.40;0.40;;;-0.80;99.90;;;;;;5033922;28;20431;-77
2022/01/24 02:56:53;;;;;;;0.50;0.50;;;-0.70;99.90;;;;;;5034037;28;20021;-77
2022/01/24 02:59:18;;;;;;;0.43;0.43;;;-1.00;99.90;;;;;;5051974;28;20278;-77
2022/01/24 03:01:45;;;;;;;0.60;0.60;;;-1.10;99.90;;;;;;5051847;28;20104;-77
2022/01/24 03:04:11;;;;;;;0.30;0.30;;;-1.00;99.90;;;;;;5033975;28;20544;-77
2022/01/24 03:06:37;;;;;;;1.15;1.15;;;-0.90;99.90;;;;;;5051641;28;20092;-77
2022/01/24 03:09:04;;;;;;;0.50;0.50;;;-0.80;99.90;;;;;;5034141;28;20071;-77
2022/01/24 03:11:59;;;;;;;0.32;0.32;;;-1.00;99.90;;;;;;5034305;28;20041;-77
2022/01/24 03:14:18;;;;;;;0.40;0.40;;;-1.00;99.90;;;;;;5051705;28;20060;-77
2022/01/24 03:16:43;;;;;;;1.73;1.65;;;-1.00;99.90;;;;;;5051690;28;20029;-77
2022/01/24 03:19:09;;;;;;;4.78;3.25;;;-1.00;99.90;;;;;;5034012;28;20354;-77
2022/01/24 03:21:35;;;;;;;0.40;0.40;;;-1.40;99.90;;;;;;5017172;28;20035;-77
2022/01/24 03:24:01;;;;;;;3.67;3.35;;;-1.60;99.90;;;;;;5017291;28;20025;-77
2022/01/24 03:26:27;;;;;;;0.43;0.43;;;-1.60;99.90;;;;;;5051501;28;20052;-77
2022/01/24 03:28:52;;;;;;;0.52;0.52;;;-2.00;99.90;;;;;;5051625;28;20078;-77
2022/01/24 03:31:19;;;;;;;0.77;0.77;;;-2.10;99.90;;;;;;5051655;28;20057;-77
2022/01/24 03:33:45;;;;;;;1.30;1.25;;;-2.10;99.90;;;;;;5034345;28;20503;-77
2022/01/24 03:36:11;;;;;;;0.50;0.50;;;-2.00;99.90;;;;;;5033796;28;20021;-77
2022/01/24 03:38:37;;;;;;;0.50;0.50;;;-2.20;99.90;;;;;;5051688;28;20029;-77
2022/01/24 03:41:03;;;;;;;2.47;1.48;;;-2.30;99.90;;;;;;5033619;28;20025;-77
2022/01/24 03:43:29;;;;;;;0.50;0.50;;;-2.50;99.90;;;;;;5017198;28;20118;-77
2022/01/24 03:46:14;;;;;;;0.77;0.77;;;-2.50;99.90;;;;;;5016895;28;20025;-77
2022/01/24 03:48:52;;;;;;;1.05;0.98;;;-2.60;99.90;;;;;;5051544;28;20520;-77
2022/01/24 03:51:19;;;;;;;0.40;0.40;;;-2.80;99.90;;;;;;5017103;28;20067;-77
2022/01/24 03:53:46;;;;;;;0.50;0.50;;;-3.00;99.90;;;;;;5033271;28;20025;-77
2022/01/24 03:56:12;;;;;;;0.77;0.77;;;-3.00;99.90;;;;;;5033325;28;20025;-77
2022/01/24 03:58:38;;;;;;;0.47;0.47;;;-3.00;99.90;;;;;;5051472;28;20033;-77
2022/01/24 04:01:06;;;;;;;1.48;1.35;;;-2.80;99.90;;;;;;5051393;28;20099;-77
2022/01/24 04:03:33;;;;;;;1.40;1.30;;;-2.80;99.90;;;;;;5051341;28;20029;-77
2022/01/24 04:05:59;;;;;;;0.57;0.57;;;-2.80;99.90;;;;;;5035326;28;20032;-77
2022/01/24 04:08:25;;;;;;;0.90;0.90;;;-2.90;99.90;;;;;;5037066;28;20399;-77
2022/01/24 04:10:55;;;;;;;0.65;0.65;;;-3.00;99.90;;;;;;5036848;28;20023;-77
2022/01/24 04:16:10;;;;;;;0.50;0.50;;;-2.70;99.90;;;;;;5054620;28;20090;-77
2022/01/24 04:21:27;;;;;;;0.50;0.50;;;-2.40;99.90;;;;;;5037000;28;20048;-77
2022/01/24 04:26:23;;;;;;;0.40;0.40;;;-2.00;99.90;;;;;;5054482;28;20056;-77
2022/01/24 04:28:49;;;;;;;2.17;1.30;;;-1.90;99.90;;;;;;5054557;28;20056;-77
2022/01/24 04:31:15;;;;;;;0.77;0.77;;;-2.00;99.90;;;;;;5036679;28;20170;-77
2022/01/24 04:33:41;;;;;;;1.67;1.58;;;-1.80;99.90;;;;;;5036665;28;20021;-77
2022/01/24 04:36:06;;;;;;;0.40;0.40;;;-1.60;99.90;;;;;;5054223;28;20150;-77
2022/01/24 04:38:32;;;;;;;0.50;0.50;;;-1.60;99.90;;;;;;5036516;28;20032;-77
2022/01/24 04:41:02;;;;;;;0.73;0.73;;;-1.70;99.90;;;;;;5054246;28;20029;-77
2022/01/24 04:56:41;;;;;;;0.40;0.40;;;-1.80;99.90;;;;;;5036284;28;20477;-77
2022/01/24 04:59:08;;;;;;;0.75;0.75;;;-1.80;99.90;;;;;;5053966;28;20017;-77
2022/01/24 05:01:34;;;;;;;0.43;0.43;;;-1.60;99.90;;;;;;5053634;28;20021;-77
2022/01/24 05:04:00;;;;;;;0.63;0.63;;;-1.40;99.90;;;;;;5019408;28;20032;-77
2022/01/24 05:06:25;;;;;;;0.65;0.65;;;-1.40;99.90;;;;;;5053597;28;20477;-77
2022/01/24 05:08:51;;;;;;;0.57;0.57;;;-1.20;99.90;;;;;;5053755;28;20036;-77
2022/01/24 05:11:23;;;;;;;1.25;1.15;;;-1.00;99.90;;;;;;5053979;28;20031;-77
2022/01/24 05:24:37;;;;;;;2.60;1.25;;;-0.40;99.90;;;;;;5035323;28;20025;-74
2022/01/24 05:27:04;;;;;;;1.65;1.55;;;-0.30;99.90;;;;;;5035475;28;20101;-73
2022/01/24 05:29:30;;;;;;;0.70;0.70;;;-0.50;99.90;;;;;;5053197;28;20021;-73
2022/01/24 05:31:56;;;;;;;0.40;0.40;;;-0.70;99.90;;;;;;5035373;28;20035;-73
2022/01/24 05:34:23;;;;;;;0.30;0.30;;;-0.60;99.90;;;;;;5018738;28;20021;-73
2022/01/24 05:36:49;;;;;;;0.55;0.55;;;-0.40;99.90;;;;;;5035280;28;20049;-73
2022/01/24 05:39:15;;;;;;;5.28;2.97;;;-0.20;99.90;;;;;;5053010;28;20413;-74
2022/01/24 05:41:41;;;;;;;4.05;1.00;;;-0.30;99.90;;;;;;5052999;28;20027;-73
2022/01/24 05:44:07;;;;;;;0.75;0.75;;;-0.30;99.90;;;;;;5052795;28;20096;-73
2022/01/24 05:46:34;;;;;;;0.55;0.55;;;-0.20;99.90;;;;;;5035101;28;20025;-73
2022/01/24 05:49:01;;;;;;;2.10;2.00;;;-0.30;99.90;;;;;;5035004;28;20060;-73
2022/01/24 05:51:28;;;;;;;0.50;0.50;;;-0.50;99.90;;;;;;5035053;28;20025;-73
2022/01/24 05:53:54;;;;;;;1.42;1.33;;;-0.70;99.90;;;;;;5034959;28;20037;-74
2022/01/24 05:56:20;;;;;;;0.70;0.70;;;-0.80;99.90;;;;;;5018225;28;20399;-74
2022/01/24 05:58:45;;;;;;;6.55;4.22;;;-0.80;99.90;;;;;;5034860;28;20099;-74
2022/01/24 06:01:11;;;;;;;5.05;3.05;;;-0.80;99.90;;;;;;5052570;28;20025;-73
2022/01/24 06:03:37;;;;;;;0.95;0.95;;;-0.70;99.90;;;;;;5034632;28;20025;-74
2022/01/24 06:06:03;;;;;;;0.50;0.50;;;-0.70;99.90;;;;;;5034451;28;20119;-74
2022/01/24 06:08:28;;;;;;;1.13;1.13;;;-0.70;99.90;;;;;;5052647;28;20144;-74
2022/01/24 06:10:58;;;;;;;0.93;0.93;;;-0.60;99.90;;;;;;5034807;28;20039;-73
2022/01/24 06:13:24;;;;;;;0.30;0.30;;;-0.50;99.90;;;;;;5052312;28;20017;-73
2022/01/24 06:15:50;;;;;;;0.77;0.77;;;-0.50;99.90;;;;;;5052364;28;20415;-73
2022/01/24 06:18:16;;;;;;;0.43;0.43;;;-0.60;99.90;;;;;;5052314;28;20047;-73
2022/01/24 06:20:44;;;;;;;1.23;1.20;;;-0.50;99.90;;;;;;5052343;28;20025;-74
2022/01/24 06:23:16;;;;;;;1.83;1.73;;;-0.40;99.90;;;;;;5017767;28;20150;-73
2022/01/24 06:25:43;;;;;;;0.30;0.30;;;-0.30;99.90;;;;;;5051923;28;20028;-73
2022/01/24 06:28:09;;;;;;;0.30;0.30;;;-0.30;99.90;;;;;;5051705;28;20017;-73
2022/01/24 06:30:35;;;;;;;0.57;0.57;;;-0.30;99.90;;;;;;5017737;28;20036;-74
2022/01/24 06:33:01;;;;;;;0.38;0.38;;;-0.30;99.90;;;;;;5052069;28;20082;-73
2022/01/24 06:35:27;;;;;;;2.40;1.17;;;-0.40;99.90;;;;;;5051937;28;20017;-74
2022/01/24 06:37:53;;;;;;;0.50;0.50;;;-0.30;99.90;;;;;;5051950;28;20037;-74
2022/01/24 06:40:18;;;;;;;0.45;0.45;;;-0.20;99.90;;;;;;5051993;28;20032;-73
2022/01/24 06:42:44;;;;;;;4.47;2.83;;;-0.10;99.90;;;;;;5050775;28;20029;-74
2022/01/24 06:45:10;;;;;;;1.45;0.75;;;0.00;99.90;;;;;;5032950;28;20078;-73
2022/01/24 06:47:36;;;;;;;2.30;2.15;;;0.10;99.90;;;;;;5051770;28;20029;-73
2022/01/24 06:50:04;;;;;;;0.77;0.77;;;0.00;99.90;;;;;;5051811;28;20439;-73
2022/01/24 06:52:29;;;;;;;0.60;0.60;;;0.10;99.90;;;;;;5050257;28;20481;-73
2022/01/24 06:54:55;;;;;;;3.42;2.88;;;0.20;99.90;;;;;;5033792;28;20032;-73
2022/01/24 06:57:21;;;;;;;0.95;0.95;;;0.10;99.90;;;;;;5033618;28;20424;-73
2022/01/24 06:59:47;;;;;;;0.30;0.30;;;0.00;99.90;;;;;;5033762;28;20029;-73
2022/01/24 07:02:14;;;;;;;0.40;0.40;;;-0.20;99.90;;;;;;5051554;28;20032;-73
2022/01/24 07:04:41;;;;;;;2.00;1.30;;;-0.40;99.90;;;;;;5051540;28;20025;-73
2022/01/24 07:07:08;;;;;;;1.40;0.60;;;-0.40;99.90;;;;;;5051662;28;20426;-73
2022/01/24 07:09:35;;;;;;;1.38;0.68;;;-0.30;99.90;;;;;;5051663;28;20098;-73
2022/01/24 07:12:01;;;;;;;0.68;0.68;;;-0.50;99.90;;;;;;5033559;28;20025;-73
2022/01/24 07:14:26;;;;;;;0.35;0.35;;;-0.40;99.90;;;;;;5033410;28;20024;-73
2022/01/24 07:19:22;;;;;;;0.68;0.68;;;-0.10;99.90;;;;;;5051521;28;20056;-73
2022/01/24 07:21:48;;;;;;;0.68;0.68;;;-0.20;99.90;;;;;;5051324;28;20035;-73
2022/01/24 07:24:14;;;;;;;0.60;0.60;;;-0.40;99.90;;;;;;5051250;28;20096;-73
2022/01/24 07:26:39;;;;;;;1.55;1.55;;;-0.40;99.90;;;;;;5051357;28;20059;-73
2022/01/24 07:29:05;;;;;;;0.88;0.88;;;-0.40;99.90;;;;;;5033628;28;20021;-73
2022/01/24 07:31:31;;;;;;;0.73;0.73;;;-0.50;99.90;;;;;;5050753;28;20419;-73
2022/01/24 07:33:57;;;;;;;0.85;0.85;;;-0.60;99.90;;;;;;5050005;28;20476;-73
2022/01/24 07:36:24;;;;;;;0.60;0.60;;;-0.60;99.90;;;;;;5031593;28;20052;-73
2022/01/24 07:38:50;;;;;;;2.20;1.92;;;-0.50;99.90;;;;;;5031572;28;20025;-73
2022/01/24 07:41:22;;;;;;;0.40;0.40;;;-0.30;99.90;;;;;;5052798;28;20107;-73
2022/01/24 07:43:48;;;;;;;0.40;0.40;;;-0.30;99.90;;;;;;5054565;28;20025;-73
2022/01/24 07:46:15;;;;;;;0.82;0.82;;;-0.20;99.90;;;;;;5036669;28;20043;-73
2022/01/24 07:48:41;;;;;;;0.80;0.80;;;-0.30;99.90;;;;;;5020204;28;20025;-73
2022/01/24 07:51:07;;;;;;;5.15;4.50;;;-0.20;99.90;;;;;;5020425;28;20028;-73
2022/01/24 07:53:33;;;;;;;2.83;2.58;;;-0.20;99.90;;;;;;5037113;28;20025;-73
2022/01/24 07:55:59;;;;;;;0.75;0.75;;;-0.30;99.90;;;;;;5019382;28;20033;-73
2022/01/24 07:58:25;;;;;;;1.92;1.83;;;-0.40;99.90;;;;;;5054758;28;20033;-73
2022/01/24 08:00:51;;;;;;;3.33;1.63;;;-0.20;99.90;;;;;;5054554;28;20475;-73
2022/01/24 08:03:18;;;;;;;0.95;0.95;;;-0.10;99.90;;;;;;5036858;28;20021;-73
2022/01/24 08:05:44;;;;;;;0.50;0.50;;;0.10;99.90;;;;;;5036395;28;20025;-73
2022/01/24 08:08:09;;;;;;;0.40;0.40;;;0.30;99.90;;;;;;5036808;28;20395;-73
2022/01/24 08:10:35;;;;;;;0.40;0.40;;;0.30;99.90;;;;;;5054004;28;20021;-73
2022/01/24 08:13:02;;;;;;;1.20;1.05;;;0.20;99.90;;;;;;5036733;28;20067;-73
2022/01/24 08:15:28;;;;;;;1.15;1.15;;;0.10;99.90;;;;;;5036632;28;20025;-73
2022/01/24 08:17:54;;;;;;;0.38;0.38;;;0.20;99.90;;;;;;5036876;28;20025;-73
2022/01/24 08:20:21;;;;;;;1.15;1.15;;;0.40;99.90;;;;;;5036677;28;20033;-73
2022/01/24 08:22:47;;;;;;;8.32;1.23;;;0.40;99.90;;;;;;5019935;28;20392;-73
2022/01/24 08:25:14;;;;;;;1.63;1.52;;;0.60;99.90;;;;;;5019877;28;20025;-75
2022/01/24 08:27:40;;;;;;;0.50;0.50;;;0.60;99.90;;;;;;5054602;28;20020;-73
2022/01/24 08:30:15;;;;;;;0.30;0.30;;;0.60;99.90;;;;;;5036345;28;20392;-73
2022/01/24 08:32:41;;;;;;;3.13;2.83;;;0.70;99.90;;;;;;5053569;28;20033;-73
2022/01/24 08:35:09;;;;;;;0.40;0.40;;;0.70;99.90;;;;;;5040407;28;20032;-73
2022/01/24 08:37:35;;;;;;;0.32;0.32;;;0.60;99.90;;;;;;5028658;28;20036;-73
2022/01/24 08:40:01;;;;;;;17.20;16.08;;;0.60;99.90;;;;;;5053463;28;20075;-73
2022/01/24 08:47:31;;;;;;;0.30;0.30;;;0.70;99.90;;;;;;5053340;28;20073;-73
2022/01/24 08:49:58;;;;;;;0.30;0.30;;;0.80;99.90;;;;;;5043354;28;20048;-73
2022/01/24 08:52:27;;;;;;;0.75;0.75;;;1.10;99.90;;;;;;5025865;28;20086;-73
2022/01/24 08:54:53;;;;;;;0.88;0.88;;;1.20;99.90;;;;;;5052781;28;20029;-73
2022/01/24 08:57:25;;;;;;;2.30;1.48;;;1.00;99.90;;;;;;5053091;28;20477;-73
2022/01/24 08:59:53;;;;;;;0.30;0.30;;;0.90;99.90;;;;;;5046785;28;20025;-73
2022/01/24 09:02:19;;;;;;;0.77;0.75;;;1.10;99.90;;;;;;5053039;28;20125;-73
2022/01/24 09:04:45;;;;;;;3.17;1.02;;;1.20;99.90;;;;;;5045259;28;20033;-73
2022/01/24 09:07:11;;;;;;;0.32;0.32;;;1.40;99.90;;;;;;5024273;28;20025;-73
2022/01/24 09:09:38;;;;;;;0.60;0.60;;;1.60;99.90;;;;;;5035095;28;20028;-73
2022/01/24 09:12:06;;;;;;;1.15;1.15;;;1.70;99.90;;;;;;5035363;28;20032;-74
2022/01/24 09:14:32;;;;;;;1.48;1.38;;;1.80;99.90;;;;;;5040569;28;20033;-73
2022/01/24 09:16:58;;;;;;;0.30;0.30;;;1.90;99.90;;;;;;5042078;28;20021;-73
2022/01/24 09:19:24;;;;;;;0.57;0.57;;;2.00;99.90;;;;;;5049248;28;20539;-73
2022/01/24 09:21:50;;;;;;;0.98;0.98;;;2.10;99.90;;;;;;5051176;28;20106;-73
2022/01/24 09:24:16;;;;;;;5.88;4.05;;;2.20;99.90;;;;;;5022894;28;20064;-73
2022/01/24 09:26:41;;;;;;;3.30;0.93;;;2.10;99.90;;;;;;5042435;28;20417;-73
2022/01/24 09:29:08;;;;;;;2.47;2.33;;;2.10;99.90;;;;;;5022694;28;20025;-73
2022/01/24 09:31:34;;;;;;;3.63;3.40;;;2.10;99.90;;;;;;5052628;28;20036;-73
2022/01/24 09:34:00;;;;;;;4.28;3.95;;;2.10;99.90;;;;;;5052308;28;20021;-73
2022/01/24 09:36:26;;;;;;;0.90;0.90;;;2.20;99.90;;;;;;5039427;28;20035;-73
2022/01/24 09:38:52;;;;;;;6.63;4.78;;;2.30;99.90;;;;;;5043848;28;20056;-73
2022/01/24 09:41:17;;;;;;;32.22;13.25;;;2.30;99.90;;;;;;5052415;28;20025;-73
2022/01/24 09:43:44;;;;;;;3.63;2.47;;;2.10;99.90;;;;;;5052143;28;20036;-73
2022/01/24 09:46:10;;;;;;;10.05;4.40;;;2.20;99.90;;;;;;5021857;28;20110;-73
2022/01/24 09:48:40;;;;;;;0.73;0.50;;;2.40;99.90;;;;;;5029056;28;20393;-73
2022/01/24 09:51:07;;;;;;;1.80;1.67;;;2.30;99.90;;;;;;5040837;28;20051;-73
2022/01/24 09:53:33;;;;;;;0.35;0.35;;;2.40;99.90;;;;;;5037563;28;20488;-73
2022/01/24 09:56:03;;;;;;;1.75;1.15;;;2.20;99.90;;;;;;5029670;28;20491;-73
2022/01/24 09:58:30;;;;;;;5.68;2.45;;;2.40;99.90;;;;;;5029539;28;20047;-75
2022/01/24 10:00:56;;;;;;;2.70;2.58;;;2.80;99.90;;;;;;5041012;28;20388;-73
2022/01/24 10:03:24;;;;;;;2.75;1.83;;;3.10;99.90;;;;;;5040123;28;20031;-73
2022/01/24 10:05:55;;;;;;;0.68;0.68;;;3.50;99.90;;;;;;5051741;28;20025;-73
2022/01/24 10:08:23;;;;;;;1.48;1.48;;;3.70;99.90;;;;;;5052005;28;20052;-74
2022/01/24 10:10:54;;;;;;;0.25;0.25;;;4.10;99.90;;;;;;5051667;28;20017;-73
2022/01/24 10:19:15;;;;;;;6.35;2.78;;;4.50;99.90;;;;;;5047090;28;20035;-73
2022/01/24 10:21:53;;;;;;;1.23;1.23;;;5.10;99.90;;;;;;5050202;28;20044;-74
2022/01/24 10:24:41;;;;;;;0.75;0.75;;;5.30;99.90;;;;;;5051775;28;20024;-73
2022/01/24 10:27:11;;;;;;;1.10;1.02;;;6.00;99.90;;;;;;5033688;28;20029;-73
2022/01/24 10:29:45;;;;;;;5.68;2.55;;;6.50;99.90;;;;;;5051114;28;20457;-73
2022/01/24 10:32:27;;;;;;;2.80;2.67;;;7.20;97.90;;;;;;5031849;28;20045;-74
2022/01/24 10:34:53;;;;;;;1.23;1.20;;;7.40;95.10;;;;;;5049918;28;20025;-73
2022/01/24 10:37:23;;;;;;;2.60;1.48;;;7.80;93.20;;;;;;5051378;28;20064;-73
2022/01/24 10:39:57;;;;;;;1.48;0.68;;;8.30;92.10;;;;;;5050983;28;20078;-74
2022/01/24 10:45:15;;;;;;;4.72;1.75;;;8.60;89.80;;;;;;5050774;28;20048;-73
2022/01/24 10:47:47;;;;;;;1.08;1.05;;;8.70;88.00;;;;;;5051379;28;20017;-72
2022/01/24 10:50:33;;;;;;;2.47;2.28;;;9.00;86.10;;;;;;5051161;28;20036;-73
2022/01/24 10:53:10;;;;;;;0.52;0.52;;;9.50;83.30;;;;;;5051600;28;20067;-78
2022/01/24 10:55:39;;;;;;;4.22;2.00;;;9.80;80.70;;;;;;5038047;28;20025;-76
2022/01/24 10:58:04;;;;;;;0.52;0.52;;;10.00;78.60;;;;;;5051387;28;20099;-74
2022/01/24 11:00:31;;;;;;;9.60;3.33;;;10.40;77.40;;;;;;5035360;28;20492;-74
2022/01/24 11:02:59;;;;;;;10.65;9.55;;;10.40;77.30;;;;;;5051179;28;20051;-74
2022/01/24 11:05:26;;;;;;;1.73;1.63;;;10.50;75.60;;;;;;5047513;28;20434;-74
2022/01/24 11:08:00;;;;;;;4.38;1.88;;;10.70;73.60;;;;;;5021666;28;20021;-74
2022/01/24 11:10:28;;;;;;;2.90;2.25;;;10.40;74.40;;;;;;5051598;28;20047;-74
2022/01/24 11:12:54;;;;;;;0.40;0.40;;;9.90;74.60;;;;;;5051366;28;20427;-74
2022/01/24 11:15:22;;;;;;;1.65;1.45;;;9.30;77.60;;;;;;5033300;28;20116;-73
2022/01/24 11:17:48;;;;;;;0.22;0.22;;;9.10;79.30;;;;;;5055371;28;20025;-74
2022/01/24 11:20:18;;;;;;;4.32;1.85;;;9.70;76.90;;;;;;5055245;28;20118;-74
2022/01/24 11:22:54;;;;;;;1.05;0.95;;;9.50;76.70;;;;;;5054834;28;20037;-74
2022/01/24 11:25:20;;;;;;;0.90;0.73;;;9.90;77.30;;;;;;5055184;28;20115;-74
2022/01/24 11:27:47;;;;;;;2.20;1.55;;;10.00;75.40;;;;;;5052986;28;20021;-74
2022/01/24 11:30:18;;;;;;;1.30;0.90;;;10.40;73.40;;;;;;5055050;28;20108;-74
2022/01/24 11:33:04;;;;;;;10.37;4.10;;;10.60;74.30;;;;;;5036828;28;20029;-73
2022/01/24 11:35:33;;;;;;;4.10;1.98;;;10.50;70.60;;;;;;5025509;28;20368;-76
2022/01/24 11:37:59;;;;;;;0.45;0.45;;;9.90;73.80;;;;;;5054444;28;20025;-74
2022/01/24 11:40:26;;;;;;;1.17;1.13;;;9.90;74.90;;;;;;5054484;28;20425;-74
2022/01/24 11:42:52;;;;;;;2.83;1.60;;;10.50;73.60;;;;;;5054155;28;20025;-74
2022/01/24 11:45:45;;;;;;;3.08;1.75;;;11.20;71.30;;;;;;5040250;28;20028;-74
2022/01/24 11:48:17;;;;;;;1.92;1.38;;;11.60;69.90;;;;;;5054390;28;20425;-74
2022/01/24 11:50:58;;;;;;;0.90;0.80;;;11.40;68.60;;;;;;5041499;28;20025;-74
2022/01/24 11:53:30;;;;;;;3.90;2.83;;;11.00;69.00;;;;;;5050279;28;20116;-74
2022/01/24 11:56:15;;;;;;;0.68;0.68;;;10.80;69.90;;;;;;5054359;28;20446;-73
2022/01/24 11:58:40;;;;;;;1.00;0.68;;;10.00;70.80;;;;;;5045224;28;20028;-74
2022/01/24 12:01:07;;;;;;;0.30;0.30;;;9.80;72.60;;;;;;5049446;28;20025;-74
2022/01/24 12:03:34;;;;;;;0.55;0.55;;;10.10;72.00;;;;;;5054358;28;20499;-74
2022/01/24 12:06:09;;;;;;;1.05;1.05;;;9.60;72.00;;;;;;5036384;28;20028;-74
2022/01/24 12:08:44;;;;;;;0.50;0.50;;;8.80;76.00;;;;;;5036435;28;20065;-73
2022/01/24 12:11:13;;;;;;;0.80;0.80;;;8.10;77.30;;;;;;5036069;28;20024;-73
2022/01/24 12:13:46;;;;;;;3.05;2.40;;;7.70;79.00;;;;;;5035956;28;20031;-74
2022/01/24 12:16:15;;;;;;;1.88;1.20;;;7.50;80.80;;;;;;5036410;28;20025;-74
2022/01/24 12:18:40;;;;;;;0.30;0.30;;;7.70;81.10;;;;;;5028446;28;20033;-73
2022/01/24 12:21:09;;;;;;;0.80;0.80;;;7.50;82.20;;;;;;5054066;28;20044;-74
2022/01/24 12:23:47;;;;;;;0.68;0.65;;;7.50;83.30;;;;;;5037316;28;20512;-74
2022/01/24 12:26:12;;;;;;;5.35;2.65;;;7.80;81.30;;;;;;5026904;28;20025;-74
2022/01/24 12:28:41;;;;;;;0.32;0.32;;;7.70;81.70;;;;;;5053979;28;20024;-74
2022/01/24 12:31:26;;;;;;;0.30;0.30;;;7.80;82.10;;;;;;5053971;28;20166;-74
2022/01/24 12:33:55;;;;;;;2.22;0.60;;;7.50;81.90;;;;;;5023724;28;20021;-73
2022/01/24 12:39:25;;;;;;;0.85;0.85;;;6.10;85.50;;;;;;5018361;28;20044;-74
2022/01/24 12:41:59;;;;;;;18.45;4.35;;;5.90;89.10;;;;;;5038387;28;20025;-74
2022/01/24 12:47:04;;;;;;;28.35;7.22;;;5.60;91.20;;;;;;5053523;28;20025;-73
2022/01/24 12:49:31;;;;;;;1.55;1.23;;;5.70;90.90;;;;;;5038942;28;20025;-74
2022/01/24 12:52:06;;;;;;;2.90;2.67;;;6.10;90.80;;;;;;5047645;28;20021;-74
2022/01/24 12:54:34;;;;;;;1.52;1.40;;;6.10;89.90;;;;;;5053522;28;20029;-73
2022/01/24 12:57:05;;;;;;;0.50;0.50;;;5.80;90.20;;;;;;5025303;28;20185;-74
2022/01/24 12:59:32;;;;;;;0.40;0.40;;;5.70;90.80;;;;;;5053576;28;20032;-74
2022/01/24 13:02:01;;;;;;;1.20;0.77;;;5.60;91.60;;;;;;5042213;28;20492;-73
2022/01/24 13:04:31;;;;;;;5.13;1.60;;;5.60;91.60;;;;;;5053258;28;20025;-73
2022/01/24 13:06:58;;;;;;;2.65;0.93;;;5.60;91.70;;;;;;5053557;28;20021;-74
2022/01/24 13:09:26;;;;;;;0.40;0.40;;;5.70;92.10;;;;;;5052976;28;20074;-73
2022/01/24 13:11:54;;;;;;;0.70;0.70;;;5.60;92.30;;;;;;5053087;28;20021;-73
2022/01/24 13:14:36;;;;;;;2.47;2.03;;;5.40;91.60;;;;;;5040057;28;20558;-74
2022/01/24 13:22:54;;;;;;;4.05;3.28;;;4.90;93.80;;;;;;5052688;28;20049;-73
2022/01/24 13:25:25;;;;;;;0.25;0.25;;;5.00;95.60;;;;;;5053091;28;20384;-74
2022/01/24 13:27:55;;;;;;;;;;;5.10;94.50;;;;;;5051876;28;20535;-74
2022/01/24 13:30:32;;;;;;;11.27;2.28;;;4.90;94.50;;;;;;5052849;28;19943;-74
2022/01/24 13:33:06;;;;;;;1.55;1.48;;;4.90;94.90;;;;;;5044620;28;20036;-73
2022/01/24 13:35:37;;;;;;;1.08;1.08;;;4.80;95.80;;;;;;5052902;28;20025;-74
2022/01/24 13:38:07;;;;;;;52.33;5.43;;;4.70;95.70;;;;;;5017160;28;20036;-73
2022/01/24 13:40:40;;;;;;;0.40;0.40;;;4.80;96.80;;;;;;5051347;28;20041;-73
2022/01/24 13:43:08;;;;;;;7.38;3.67;;;5.10;95.80;;;;;;5052540;28;20017;-74
2022/01/24 13:45:40;;;;;;;0.20;0.20;;;5.10;95.70;;;;;;5051071;28;20064;-74
2022/01/24 13:48:15;;;;;;;;;;;5.00;95.60;;;;;;5052949;28;20083;-74
2022/01/24 13:50:51;;;;;;;1.58;1.48;;;5.00;96.20;;;;;;5045206;28;19911;-73
2022/01/24 13:53:30;;;;;;;1.98;1.88;;;4.90;95.10;;;;;;5051924;28;20036;-73
2022/01/24 13:55:56;;;;;;;1.58;1.05;;;4.50;98.30;;;;;;5052275;28;20488;-73
2022/01/24 13:58:26;;;;;;;1.65;1.20;;;4.70;98.30;;;;;;5052107;28;20029;-74
2022/01/24 14:01:01;;;;;;;30.90;3.42;;;4.40;97.80;;;;;;5052233;28;20048;-74
2022/01/24 14:03:27;;;;;;;1.40;0.80;;;4.30;99.90;;;;;;5049544;28;20045;-73
2022/01/24 14:06:15;;;;;;;0.20;0.20;;;4.30;99.90;;;;;;5052100;28;20021;-73
2022/01/24 14:08:42;;;;;;;3.40;1.00;;;4.40;99.90;;;;;;5050587;28;20018;-73
2022/01/24 14:11:17;;;;;;;2.25;1.27;;;4.30;99.90;;;;;;5028309;28;20027;-73
2022/01/24 14:14:01;;;;;;;0.30;0.30;;;4.00;99.90;;;;;;5051758;28;20373;-74
2022/01/24 14:16:41;;;;;;;0.70;0.70;;;3.90;99.90;;;;;;5052131;28;20104;-73
2022/01/24 14:19:08;;;;;;;0.40;0.40;;;3.90;99.90;;;;;;5014460;28;20538;-73
2022/01/24 14:21:33;;;;;;;0.30;0.30;;;3.80;99.90;;;;;;5031371;28;20051;-74
2022/01/24 14:24:02;;;;;;;1.45;1.38;;;3.80;99.90;;;;;;5051529;28;20021;-73
2022/01/24 14:26:30;;;;;;;2.83;2.17;;;3.70;99.90;;;;;;5051518;28;20362;-75
2022/01/24 14:29:27;;;;;;;5.43;2.40;;;3.80;99.90;;;;;;5040128;28;20025;-74
2022/01/24 14:32:09;;;;;;;0.65;0.60;;;3.90;99.90;;;;;;5050569;28;20497;-73
2022/01/24 14:34:35;;;;;;;0.28;0.28;;;3.90;99.90;;;;;;5033847;28;20025;-73
2022/01/24 14:37:05;;;;;;;15.32;2.00;;;3.80;99.90;;;;;;5051546;28;20029;-73
2022/01/24 14:39:32;;;;;;;0.70;0.70;;;3.50;99.90;;;;;;5038811;28;20103;-73
2022/01/24 14:42:04;;;;;;;0.30;0.30;;;3.40;99.90;;;;;;5033598;28;20036;-73
2022/01/24 14:47:14;;;;;;;0.90;0.82;;;3.30;99.90;;;;;;5050227;28;19908;-73
2022/01/24 14:49:41;;;;;;;1.27;1.27;;;3.30;99.90;;;;;;5050884;28;20100;-73
2022/01/24 14:52:12;;;;;;;2.15;2.03;;;3.00;99.90;;;;;;5049949;28;20025;-73
2022/01/24 14:54:39;;;;;;;0.32;0.32;;;3.00;99.90;;;;;;5049351;28;20033;-73
2022/01/24 14:57:08;;;;;;;4.45;2.58;;;2.80;99.90;;;;;;5051326;28;20480;-73
2022/01/24 14:59:35;;;;;;;2.17;2.08;;;2.80;99.90;;;;;;5042000;28;20032;-73
2022/01/24 15:02:01;;;;;;;5.25;3.47;;;2.90;99.90;;;;;;5021981;28;20047;-73